Lincoln Airport

Current Flights

Info
Name: Lincoln Airport
Identifier:  LNK/KLNK
Local Time:  26. Jun 23:08
City
Flights per Day
23 flights
Distance: 790km (490mi)
Punctuality
71% (6 flights per day delayed)
Delay Average: 12284 minutes
Current Weather
 26 C (Humidity: 69%)
  7kt (12km/h / 8mph) from 130°
  16km (10 mi.)
 
 METAR KLNK 270254Z 13007KT 10SM CLR 26/20 A3002 RMK AO2 SLP155 T02610200 53010

Current Delays

Departures
N/A
Arrivals
N/A

Destinations

Top Destinations
Airport Flights
per week
Seats
per week
  Chicago (ORD) 60 2,877 8 411
  Denver (DEN) 45 2,139 6 305
  Minneapolis (MSP) 40 2,027 5 289
  Atlanta (ATL) 12 922 1 131
  Norfolk (OFK) 3 - 0 0
  Holdrege () 2 - 0 0
  North Platte (LBF) 2 - 0 0
  McCook (MCK) 2 - 0 0
  Denver (APA) 2 - 0 0
  Broken Bow (BBW) 2 - 0 0

Airlines & Planes

Top Airlines
Airline Flights
per Day
Seats
per Day
  SkyWest Airlines 11 569
  Air Wisconsin 3 183
  Trans States Airlines 3 125
  Flybe Nordic 3 -
  Britt Airways 2 134
Silverhawk Aviation 2 -
  Endeavor Air 1 124
  National Airlines 1 -
  Novair 1 -
Jet Charter Inc ( Franklin Lakes Nj ) 1 -
Top Plane Types
Model Flights Seats
Bombardier CRJ200 14.4/day 711/day 711.4
Beech E90 King Air 3.7/day - 0
Embraer EMB-145XR 2.9/day 142/day 142.13333333333333
Embraer ERJ145 2.5/day 88/day 88.33333333333333
Bombardier CRJ900 1.7/day 131/day 131.73333333333332
Cessna C56X 0.7/day - -0.4666666666666667
Bombardier Challenger 600 0.6/day 30/day 30
Cessna C172 0.5/day - 0